createdAt,value
2023-01-28T00:00:53.647Z,96585.91
2023-01-28T00:03:20.185Z,96586.22
2023-01-28T00:05:46.755Z,96591.22
2023-01-28T00:08:14.880Z,96590.13
2023-01-28T00:10:42.975Z,96577.13
2023-01-28T00:13:11.798Z,96563.16
2023-01-28T00:15:38.260Z,96572.91
2023-01-28T00:18:04.811Z,96563.47
2023-01-28T00:20:31.767Z,96550.91
2023-01-28T00:22:58.556Z,96531.59
2023-01-28T00:25:25.069Z,96531.31
2023-01-28T00:27:51.747Z,96538.50
2023-01-28T00:30:19.471Z,96543.06
2023-01-28T00:32:47.099Z,96529.56
2023-01-28T00:35:13.962Z,96505.25
2023-01-28T00:37:40.916Z,96494.56
2023-01-28T00:40:09.883Z,96502.91
2023-01-28T00:42:37.345Z,96502.44
2023-01-28T00:45:04.021Z,96499.13
2023-01-28T00:47:30.528Z,96477.13
2023-01-28T00:49:57.310Z,96474.47
2023-01-28T00:52:23.918Z,96474.94
2023-01-28T00:54:50.386Z,96457.38
2023-01-28T00:57:16.919Z,96458.00
2023-01-28T00:59:43.884Z,96440.69
2023-01-28T01:02:13.301Z,96438.03
2023-01-28T01:04:40.655Z,96442.63
2023-01-28T01:07:09.263Z,96435.41
2023-01-28T01:09:35.956Z,96426.56
2023-01-28T01:12:02.588Z,96413.50
2023-01-28T01:14:29.187Z,96406.94
2023-01-28T01:16:56.175Z,96411.34
2023-01-28T01:19:22.759Z,96407.09
2023-01-28T01:21:51.019Z,96395.28
2023-01-28T01:24:17.838Z,96398.41
2023-01-28T01:26:44.472Z,96396.56
2023-01-28T01:29:13.372Z,96400.97
2023-01-28T01:31:42.187Z,96389.66
2023-01-28T01:34:12.186Z,96388.97
2023-01-28T01:36:38.694Z,96390.56
2023-01-28T01:39:07.165Z,96388.38
2023-01-28T01:41:35.493Z,96383.69
2023-01-28T01:44:05.005Z,96391.19
2023-01-28T01:46:43.838Z,96381.06
2023-01-28T01:49:21.292Z,96390.41
2023-01-28T01:51:50.169Z,96395.00
2023-01-28T01:54:18.253Z,96384.94
2023-01-28T01:56:47.544Z,96376.41
2023-01-28T01:59:17.595Z,96366.97
2023-01-28T02:01:45.728Z,96369.50
2023-01-28T02:04:16.402Z,96375.78
2023-01-28T02:06:42.917Z,96387.25
2023-01-28T02:09:25.582Z,96368.16
2023-01-28T02:11:57.000Z,96375.78
2023-01-28T02:14:30.937Z,96362.97
2023-01-28T02:16:58.574Z,96370.50
2023-01-28T02:19:27.413Z,96354.41
2023-01-28T02:22:10.446Z,96350.66
2023-01-28T02:24:39.959Z,96341.88
2023-01-28T02:27:09.469Z,96337.31
2023-01-28T02:29:46.763Z,96312.00
2023-01-28T02:32:13.267Z,96300.91
2023-01-28T02:34:48.015Z,96297.06
2023-01-28T02:37:32.948Z,96283.56
2023-01-28T02:40:01.421Z,96280.75
2023-01-28T02:42:29.569Z,96291.03
2023-01-28T02:44:56.132Z,96287.38
2023-01-28T02:47:41.712Z,96251.28
2023-01-28T02:50:13.596Z,96254.13
2023-01-28T02:53:01.377Z,96249.47
2023-01-28T02:55:46.050Z,96241.25
2023-01-28T02:58:24.836Z,96249.31
2023-01-28T03:00:51.391Z,96236.75
2023-01-28T03:03:22.548Z,96240.72
2023-01-28T03:06:09.177Z,96235.13
2023-01-28T03:09:15.046Z,96231.66
2023-01-28T03:12:05.065Z,96235.66
2023-01-28T03:14:51.240Z,96238.91
2023-01-28T03:17:43.947Z,96223.59
2023-01-28T03:20:29.171Z,96224.19
2023-01-28T03:23:15.437Z,96217.16
2023-01-28T03:26:04.748Z,96224.19
2023-01-28T03:28:50.485Z,96221.84
2023-01-28T03:31:37.210Z,96207.38
2023-01-28T03:34:24.495Z,96199.16
2023-01-28T03:36:53.537Z,96202.03
2023-01-28T03:39:23.033Z,96212.28
2023-01-28T03:42:09.396Z,96205.41
2023-01-28T03:44:54.900Z,96194.25
2023-01-28T03:47:25.479Z,96200.72
2023-01-28T03:49:53.048Z,96196.09
2023-01-28T03:52:23.707Z,96183.66
2023-01-28T03:54:50.358Z,96188.28
2023-01-28T03:57:17.410Z,96193.16
2023-01-28T03:59:44.108Z,96193.81
2023-01-28T04:02:11.540Z,96190.75
2023-01-28T04:04:41.448Z,96186.72
2023-01-28T04:07:08.894Z,96174.38
2023-01-28T04:09:36.106Z,96184.16
2023-01-28T04:12:03.083Z,96178.16
2023-01-28T04:14:31.677Z,96173.41
2023-01-28T04:16:58.331Z,96166.72
2023-01-28T04:19:25.361Z,96168.28
2023-01-28T04:21:54.101Z,96176.28
2023-01-28T04:24:21.380Z,96152.38
2023-01-28T04:26:48.132Z,96158.28
2023-01-28T04:29:14.903Z,96154.47
2023-01-28T04:31:42.307Z,96162.28
2023-01-28T04:34:09.420Z,96161.63
2023-01-28T04:36:35.961Z,96146.03
2023-01-28T04:39:04.883Z,96163.00
2023-01-28T04:41:31.559Z,96177.94
2023-01-28T04:44:00.411Z,96169.13
2023-01-28T04:46:27.023Z,96164.56
2023-01-28T04:48:53.564Z,96167.56
2023-01-28T04:51:20.054Z,96171.22
2023-01-28T04:53:46.516Z,96165.88
2023-01-28T04:56:12.994Z,96160.31
2023-01-28T04:58:39.735Z,96157.22
2023-01-28T05:01:06.260Z,96143.50
2023-01-28T05:03:34.695Z,96133.34
2023-01-28T05:06:04.828Z,96136.00
2023-01-28T05:08:31.271Z,96123.13
2023-01-28T05:10:57.797Z,96140.28
2023-01-28T05:13:26.345Z,96145.50
2023-01-28T05:15:53.995Z,96157.66
2023-01-28T05:18:20.568Z,96156.53
2023-01-28T05:20:47.547Z,96156.31
2023-01-28T05:23:14.051Z,96162.53
2023-01-28T05:25:40.877Z,96163.00
2023-01-28T05:28:07.421Z,96149.19
2023-01-28T05:30:33.938Z,96148.75
2023-01-28T05:33:01.241Z,96155.19
2023-01-28T05:35:28.463Z,96153.84
2023-01-28T05:37:55.110Z,96163.44
2023-01-28T05:40:21.784Z,96167.69
2023-01-28T05:42:48.354Z,96157.78
2023-01-28T05:45:15.178Z,96164.00
2023-01-28T05:47:44.827Z,96168.00
2023-01-28T05:50:13.625Z,96156.53
2023-01-28T05:52:40.593Z,96149.63
2023-01-28T05:55:07.947Z,96136.91
2023-01-28T05:57:34.474Z,96143.50
2023-01-28T06:00:01.338Z,96145.59
2023-01-28T06:02:27.883Z,96139.59
2023-01-28T06:04:54.568Z,96146.63
2023-01-28T06:07:21.187Z,96133.00
2023-01-28T06:09:48.434Z,96142.25
2023-01-28T06:12:15.007Z,96145.78
2023-01-28T06:14:41.739Z,96148.69
2023-01-28T06:17:08.347Z,96136.44
2023-01-28T06:19:34.889Z,96138.13
2023-01-28T06:22:01.485Z,96134.22
2023-01-28T06:24:28.248Z,96127.06
2023-01-28T06:26:54.773Z,96122.44
2023-01-28T06:29:21.321Z,96114.63
2023-01-28T06:31:47.908Z,96116.41
2023-01-28T06:34:16.004Z,96127.97
2023-01-28T06:36:42.572Z,96123.28
2023-01-28T06:39:09.053Z,96124.78
2023-01-28T06:41:37.468Z,96122.84
2023-01-28T06:44:06.249Z,96143.78
2023-01-28T06:46:32.991Z,96142.47
2023-01-28T06:48:59.508Z,96152.84
2023-01-28T06:51:26.023Z,96144.59
2023-01-28T06:53:52.531Z,96154.84
2023-01-28T06:56:19.035Z,96157.41
2023-01-28T06:58:45.532Z,96175.34
2023-01-28T07:01:12.093Z,96175.72
2023-01-28T07:03:38.610Z,96179.50
2023-01-28T07:06:05.568Z,96179.69
2023-01-28T07:08:32.528Z,96189.16
2023-01-28T07:10:59.645Z,96190.59
2023-01-28T07:13:26.380Z,96204.66
2023-01-28T07:15:53.173Z,96219.81
2023-01-28T07:18:19.770Z,96252.28
2023-01-28T07:20:46.306Z,96245.38
2023-01-28T07:23:12.951Z,96254.78
2023-01-28T07:25:39.616Z,96267.50
2023-01-28T07:28:06.220Z,96273.69
2023-01-28T07:30:32.759Z,96271.47
2023-01-28T07:33:00.568Z,96272.56
2023-01-28T07:35:29.542Z,96247.47
2023-01-28T07:37:57.250Z,96236.50
2023-01-28T07:40:25.954Z,96273.13
2023-01-28T07:42:53.378Z,96274.75
2023-01-28T07:45:19.835Z,96257.41
2023-01-28T07:47:53.485Z,96245.31
2023-01-28T07:50:20.025Z,96236.06
2023-01-28T07:52:49.809Z,96252.66
2023-01-28T07:55:16.869Z,96259.44
2023-01-28T07:57:52.499Z,96266.22
2023-01-28T08:00:19.864Z,96266.78
2023-01-28T08:02:48.011Z,96274.38
2023-01-28T08:05:18.490Z,96272.13
2023-01-28T08:07:45.684Z,96274.88
2023-01-28T08:10:13.757Z,96269.81
2023-01-28T08:12:40.798Z,96254.25
2023-01-28T08:15:07.843Z,96266.38
2023-01-28T08:17:34.322Z,96266.19
2023-01-28T08:20:00.837Z,96265.31
2023-01-28T08:22:27.808Z,96298.78
2023-01-28T08:24:54.357Z,96285.53
2023-01-28T08:27:20.873Z,96299.44
2023-01-28T08:29:47.500Z,96314.84
2023-01-28T08:32:14.787Z,96305.59
2023-01-28T08:34:42.036Z,96302.41
2023-01-28T08:37:08.498Z,96302.41
2023-01-28T08:39:35.012Z,96313.78
2023-01-28T08:42:01.555Z,96320.16
2023-01-28T08:44:28.020Z,96315.31
2023-01-28T08:46:54.480Z,96336.03
2023-01-28T08:49:22.334Z,96343.28
2023-01-28T08:51:49.196Z,96355.34
2023-01-28T08:54:15.747Z,96352.69
2023-01-28T08:56:45.051Z,96364.63
2023-01-28T08:59:11.837Z,96362.47
2023-01-28T09:01:38.474Z,96366.06
2023-01-28T09:04:05.152Z,96356.38
2023-01-28T09:06:32.276Z,96355.34
2023-01-28T09:08:59.708Z,96395.94
2023-01-28T09:11:26.650Z,96386.13
2023-01-28T09:13:53.148Z,96394.16
2023-01-28T09:16:19.870Z,96406.59
2023-01-28T09:18:48.336Z,96419.28
2023-01-28T09:21:14.982Z,96420.56
2023-01-28T09:23:41.535Z,96405.63
2023-01-28T09:26:11.111Z,96392.97
2023-01-28T09:28:38.494Z,96409.38
2023-01-28T09:31:08.729Z,96408.97
2023-01-28T09:33:37.322Z,96393.44
2023-01-28T09:36:05.356Z,96370.28
2023-01-28T09:38:32.576Z,96352.06
2023-01-28T09:40:59.410Z,96364.06
2023-01-28T09:43:41.145Z,96359.25
2023-01-28T09:46:13.301Z,96347.75
2023-01-28T09:48:53.020Z,96336.88
2023-01-28T09:51:19.540Z,96314.06
2023-01-28T09:53:50.063Z,96305.84
2023-01-28T09:56:22.401Z,96306.63
2023-01-28T09:58:48.901Z,96309.63
2023-01-28T10:01:33.819Z,96320.25
2023-01-28T10:04:12.961Z,96335.84
2023-01-28T10:07:00.145Z,96321.50
2023-01-28T10:09:29.745Z,96328.75
2023-01-28T10:12:16.912Z,96340.91
2023-01-28T10:14:46.519Z,96356.31
2023-01-28T10:17:12.960Z,96364.47
2023-01-28T10:19:54.617Z,96363.81
2023-01-28T10:22:26.598Z,96371.75
2023-01-28T10:25:03.822Z,96400.41
2023-01-28T10:27:31.154Z,96408.25
2023-01-28T10:29:58.816Z,96421.75
2023-01-28T10:32:34.156Z,96424.78
2023-01-28T10:35:03.967Z,96422.09
2023-01-28T10:37:33.659Z,96428.34
2023-01-28T10:40:00.585Z,96442.59
2023-01-28T10:42:28.414Z,96444.94
2023-01-28T10:45:00.874Z,96432.47
2023-01-28T10:47:33.920Z,96457.09
2023-01-28T10:50:01.647Z,96444.16
2023-01-28T10:52:28.300Z,96449.31
2023-01-28T10:55:05.853Z,96470.94
2023-01-28T10:57:35.268Z,96481.06
2023-01-28T11:00:22.738Z,96469.19
2023-01-28T11:02:49.738Z,96481.47
2023-01-28T11:05:27.399Z,96479.44
2023-01-28T11:08:04.607Z,96487.28
2023-01-28T11:10:32.421Z,96489.97
2023-01-28T11:12:59.824Z,96496.16
2023-01-28T11:15:26.662Z,96482.91
2023-01-28T11:18:06.294Z,96481.13
2023-01-28T11:20:37.640Z,96484.00
2023-01-28T11:23:04.564Z,96471.59
2023-01-28T11:25:35.293Z,96475.66
2023-01-28T11:28:05.188Z,96480.09
2023-01-28T11:30:34.095Z,96482.31
2023-01-28T11:33:21.075Z,96480.22
2023-01-28T11:35:58.580Z,96482.34
2023-01-28T11:38:26.083Z,96492.16
2023-01-28T11:40:53.437Z,96497.06
2023-01-28T11:43:24.186Z,96480.13
2023-01-28T11:46:05.716Z,96498.00
2023-01-28T11:48:35.260Z,96498.00
2023-01-28T11:51:06.285Z,96487.97
2023-01-28T11:53:51.308Z,96504.91
2023-01-28T11:56:27.283Z,96508.44
2023-01-28T11:58:59.788Z,96489.16
2023-01-28T12:01:39.889Z,96473.56
2023-01-28T12:04:18.376Z,96491.06
2023-01-28T12:06:58.399Z,96484.50
2023-01-28T12:09:26.634Z,96494.75
2023-01-28T12:12:16.167Z,96512.69
2023-01-28T12:15:01.667Z,96514.25
2023-01-28T12:17:28.229Z,96517.56
2023-01-28T12:20:09.827Z,96518.00
2023-01-28T12:22:48.330Z,96524.78
2023-01-28T12:25:29.235Z,96521.09
2023-01-28T12:28:16.027Z,96516.16
2023-01-28T12:30:49.611Z,96516.50
2023-01-28T12:33:28.349Z,96516.94
2023-01-28T12:36:02.663Z,96513.66
2023-01-28T12:38:32.259Z,96521.88
2023-01-28T12:41:03.432Z,96504.78
2023-01-28T12:43:41.443Z,96510.13
2023-01-28T12:46:23.277Z,96525.41
2023-01-28T12:48:53.307Z,96528.03
2023-01-28T12:51:19.799Z,96537.16
2023-01-28T12:54:01.423Z,96546.97
2023-01-28T12:56:33.541Z,96544.75
2023-01-28T12:59:07.106Z,96541.72
2023-01-28T13:01:41.081Z,96561.66
2023-01-28T13:04:24.144Z,96553.63
2023-01-28T13:06:56.969Z,96536.72
2023-01-28T13:09:27.677Z,96548.88
2023-01-28T13:11:57.132Z,96561.00
2023-01-28T13:14:25.995Z,96541.94
2023-01-28T13:16:52.573Z,96542.41
2023-01-28T13:19:19.122Z,96550.94
2023-01-28T13:21:49.575Z,96552.50
2023-01-28T13:24:16.221Z,96551.66
2023-01-28T13:26:50.777Z,96556.56
2023-01-28T13:29:17.203Z,96557.41
2023-01-28T13:31:46.155Z,96550.63
2023-01-28T13:34:34.264Z,96542.41
2023-01-28T13:37:06.080Z,96567.00
2023-01-28T13:39:34.427Z,96567.84
2023-01-28T13:42:24.052Z,96559.69
2023-01-28T13:44:50.784Z,96549.31
2023-01-28T13:47:29.878Z,96555.94
2023-01-28T13:49:56.360Z,96577.06
2023-01-28T13:52:37.769Z,96566.19
2023-01-28T13:55:07.589Z,96586.09
2023-01-28T13:57:34.071Z,96590.50
2023-01-28T14:00:06.735Z,96618.31
2023-01-28T14:02:40.908Z,96630.09
2023-01-28T14:05:40.478Z,96664.91
2023-01-28T14:08:09.779Z,96671.56
2023-01-28T14:11:01.851Z,96668.56
2023-01-28T14:13:34.568Z,96660.22
2023-01-28T14:16:01.123Z,96673.47
2023-01-28T14:18:29.041Z,96672.03
2023-01-28T14:20:56.919Z,96653.63
2023-01-28T14:23:25.078Z,96661.97
2023-01-28T14:26:04.306Z,96659.84
2023-01-28T14:28:49.212Z,96632.31
2023-01-28T14:31:24.940Z,96609.78
2023-01-28T14:33:52.917Z,96629.78
2023-01-28T14:36:19.642Z,96632.00
2023-01-28T14:38:46.599Z,96626.31
2023-01-28T14:41:27.504Z,96638.91
2023-01-28T14:43:57.358Z,96652.00
2023-01-28T14:46:23.824Z,96618.81
2023-01-28T14:48:57.094Z,96609.69
2023-01-28T14:51:35.580Z,96616.31
2023-01-28T14:54:08.235Z,96607.19
2023-01-28T14:56:37.762Z,96608.41
2023-01-28T14:59:20.642Z,96620.09
2023-01-28T15:01:47.913Z,96623.72
2023-01-28T15:04:22.811Z,96606.81
2023-01-28T15:06:50.504Z,96599.31
2023-01-28T15:09:17.020Z,96610.47
2023-01-28T15:11:45.414Z,96594.06
2023-01-28T15:14:32.345Z,96617.25
2023-01-28T15:16:59.341Z,96603.91
2023-01-28T15:19:28.874Z,96584.81
2023-01-28T15:22:07.312Z,96577.56
2023-01-28T15:24:35.100Z,96614.72
2023-01-28T15:27:02.103Z,96615.47
2023-01-28T15:29:36.541Z,96609.81
2023-01-28T15:32:04.737Z,96620.66
2023-01-28T15:34:32.824Z,96621.66
2023-01-28T15:37:00.674Z,96615.00
2023-01-28T15:39:28.331Z,96625.38
2023-01-28T15:41:54.931Z,96633.28
2023-01-28T15:44:31.317Z,96629.78
2023-01-28T15:47:02.192Z,96639.09
2023-01-28T15:49:31.323Z,96650.75
2023-01-28T15:51:57.971Z,96631.88
2023-01-28T15:54:24.998Z,96633.56
2023-01-28T15:56:51.541Z,96643.19
2023-01-28T15:59:26.315Z,96634.34
2023-01-28T16:02:12.711Z,96634.81
2023-01-28T16:04:39.296Z,96629.03
2023-01-28T16:07:05.947Z,96623.22
2023-01-28T16:09:33.988Z,96600.56
2023-01-28T16:12:03.448Z,96615.06
2023-01-28T16:14:31.838Z,96606.72
2023-01-28T16:16:58.397Z,96581.09
2023-01-28T16:19:27.875Z,96588.16
2023-01-28T16:21:54.453Z,96578.13
2023-01-28T16:24:25.645Z,96561.91
2023-01-28T16:26:59.256Z,96567.25
2023-01-28T16:29:26.508Z,96576.09
2023-01-28T16:31:54.643Z,96552.78
2023-01-28T16:34:21.088Z,96557.50
2023-01-28T16:36:47.540Z,96561.91
2023-01-28T16:39:14.113Z,96560.47
2023-01-28T16:41:42.548Z,96560.91
2023-01-28T16:44:16.041Z,96567.56
2023-01-28T16:46:44.928Z,96574.97
2023-01-28T16:49:11.619Z,96562.03
2023-01-28T16:51:40.637Z,96576.03
2023-01-28T16:54:07.242Z,96580.44
2023-01-28T16:56:45.240Z,96572.53
2023-01-28T16:59:12.495Z,96592.72
2023-01-28T17:01:39.580Z,96599.16
2023-01-28T17:04:11.964Z,96597.91
2023-01-28T17:06:39.686Z,96608.28
2023-01-28T17:09:06.382Z,96613.47
2023-01-28T17:11:33.110Z,96629.53
2023-01-28T17:13:59.773Z,96623.81
2023-01-28T17:16:26.429Z,96642.84
2023-01-28T17:18:53.683Z,96648.72
2023-01-28T17:21:22.603Z,96648.03
2023-01-28T17:23:49.048Z,96650.56
2023-01-28T17:26:18.312Z,96662.19
2023-01-28T17:28:45.096Z,96663.19
2023-01-28T17:31:13.685Z,96654.06
2023-01-28T17:33:42.033Z,96654.69
2023-01-28T17:36:09.160Z,96655.94
2023-01-28T17:38:36.033Z,96654.22
2023-01-28T17:41:06.811Z,96626.69
2023-01-28T17:43:34.450Z,96610.19
2023-01-28T17:46:01.560Z,96621.19
2023-01-28T17:48:29.572Z,96626.41
2023-01-28T17:50:57.357Z,96622.03
2023-01-28T17:53:24.066Z,96606.78
2023-01-28T17:55:50.707Z,96589.31
2023-01-28T17:58:17.218Z,96580.19
2023-01-28T18:00:43.775Z,96576.44
2023-01-28T18:03:12.588Z,96575.50
2023-01-28T18:05:39.572Z,96579.72
2023-01-28T18:08:06.491Z,96570.44
2023-01-28T18:10:33.920Z,96587.59
2023-01-28T18:13:00.393Z,96568.13
2023-01-28T18:15:28.362Z,96590.63
2023-01-28T18:17:54.887Z,96581.78
2023-01-28T18:20:21.413Z,96581.78
2023-01-28T18:22:47.924Z,96585.56
2023-01-28T18:25:18.828Z,96592.13
2023-01-28T18:27:45.816Z,96600.31
2023-01-28T18:30:14.277Z,96616.34
2023-01-28T18:32:41.912Z,96619.81
2023-01-28T18:35:10.317Z,96619.34
2023-01-28T18:37:38.036Z,96623.59
2023-01-28T18:40:05.405Z,96616.34
2023-01-28T18:42:33.066Z,96615.09
2023-01-28T18:44:59.669Z,96631.28
2023-01-28T18:47:26.388Z,96644.97
2023-01-28T18:49:52.891Z,96637.44
2023-01-28T18:52:19.431Z,96654.09
2023-01-28T18:54:46.048Z,96634.91
2023-01-28T18:57:12.575Z,96652.53
2023-01-28T18:59:39.071Z,96642.66
2023-01-28T19:02:05.666Z,96623.78
2023-01-28T19:04:32.192Z,96650.97
2023-01-28T19:06:58.704Z,96646.56
2023-01-28T19:09:25.322Z,96621.88
2023-01-28T19:11:51.917Z,96644.38
2023-01-28T19:14:18.570Z,96647.19
2023-01-28T19:16:45.219Z,96656.00
2023-01-28T19:19:12.273Z,96656.31
2023-01-28T19:21:39.073Z,96644.22
2023-01-28T19:24:09.266Z,96647.81
2023-01-28T19:26:36.564Z,96622.06
2023-01-28T19:29:03.209Z,96624.91
2023-01-28T19:31:29.914Z,96617.84
2023-01-28T19:33:58.667Z,96624.59
2023-01-28T19:36:26.345Z,96613.91
2023-01-28T19:39:00.403Z,96604.31
2023-01-28T19:41:28.253Z,96592.19
2023-01-28T19:43:55.435Z,96623.94
2023-01-28T19:46:22.069Z,96626.13
2023-01-28T19:48:48.835Z,96642.78
2023-01-28T19:51:15.827Z,96648.94
2023-01-28T19:53:43.166Z,96624.25
2023-01-28T19:56:11.148Z,96650.34
2023-01-28T19:58:38.506Z,96660.88
2023-01-28T20:01:09.752Z,96661.97
2023-01-28T20:03:36.460Z,96634.19
2023-01-28T20:06:04.382Z,96614.53
2023-01-28T20:08:31.099Z,96604.16
2023-01-28T20:11:04.872Z,96588.25
2023-01-28T20:13:32.172Z,96613.56
2023-01-28T20:15:58.729Z,96622.38
2023-01-28T20:18:25.687Z,96608.22
2023-01-28T20:20:55.208Z,96595.81
2023-01-28T20:23:21.996Z,96575.69
2023-01-28T20:25:55.300Z,96582.25
2023-01-28T20:28:22.756Z,96595.19
2023-01-28T20:30:50.101Z,96597.22
2023-01-28T20:33:18.359Z,96597.53
2023-01-28T20:35:45.063Z,96577.66
2023-01-28T20:38:12.216Z,96602.22
2023-01-28T20:40:47.965Z,96611.22
2023-01-28T20:43:16.563Z,96610.56
2023-01-28T20:45:44.951Z,96603.84
2023-01-28T20:48:11.515Z,96554.19
2023-01-28T20:50:38.321Z,96518.03
2023-01-28T20:53:04.872Z,96485.25
2023-01-28T20:55:34.225Z,96443.53
2023-01-28T20:58:01.127Z,96386.53
2023-01-28T21:00:27.683Z,96352.63
2023-01-28T21:02:54.289Z,96330.47
2023-01-28T21:05:20.788Z,96318.69
2023-01-28T21:07:47.444Z,96325.66
2023-01-28T21:10:14.010Z,96345.56
2023-01-28T21:12:43.039Z,96377.75
2023-01-28T21:15:09.759Z,96392.50
2023-01-28T21:17:36.289Z,96407.81
2023-01-28T21:20:03.475Z,96437.84
2023-01-28T21:22:30.003Z,96457.31
2023-01-28T21:24:56.519Z,96468.78
2023-01-28T21:27:25.285Z,96482.91
2023-01-28T21:29:53.655Z,96459.47
2023-01-28T21:32:25.583Z,96486.00
2023-01-28T21:34:55.404Z,96495.94
2023-01-28T21:37:22.990Z,96487.94
2023-01-28T21:39:50.247Z,96486.22
2023-01-28T21:42:17.284Z,96478.19
2023-01-28T21:44:44.009Z,96463.38
2023-01-28T21:47:10.588Z,96493.59
2023-01-28T21:49:37.070Z,96495.78
2023-01-28T21:52:03.764Z,96507.25
2023-01-28T21:54:30.284Z,96497.63
2023-01-28T21:56:56.820Z,96488.47
2023-01-28T21:59:29.482Z,96472.81
2023-01-28T22:01:56.145Z,96447.75
2023-01-28T22:04:22.796Z,96380.88
2023-01-28T22:06:49.671Z,96351.88
2023-01-28T22:09:16.295Z,96293.03
2023-01-28T22:11:44.148Z,96247.50
2023-01-28T22:14:11.048Z,96220.66
2023-01-28T22:16:37.655Z,96218.22
2023-01-28T22:19:04.696Z,96205.84
2023-01-28T22:21:31.520Z,96193.31
2023-01-28T22:23:58.260Z,96182.50
2023-01-28T22:26:24.821Z,96140.16
2023-01-28T22:28:51.426Z,96148.59
2023-01-28T22:31:18.230Z,96151.00
2023-01-28T22:33:46.414Z,96154.69
2023-01-28T22:36:14.648Z,96133.22
2023-01-28T22:38:42.086Z,96119.72
2023-01-28T22:41:23.272Z,96100.94
2023-01-28T22:43:53.201Z,96102.91
2023-01-28T22:46:20.681Z,96100.13
2023-01-28T22:48:47.708Z,96081.66
2023-01-28T22:51:20.583Z,96060.13
2023-01-28T22:53:47.838Z,96035.09
2023-01-28T22:56:16.953Z,96022.41
2023-01-28T22:58:43.896Z,96032.09
2023-01-28T23:01:10.691Z,96058.09
2023-01-28T23:03:37.211Z,96080.28
2023-01-28T23:06:04.823Z,96082.19
2023-01-28T23:08:32.382Z,96089.38
2023-01-28T23:11:01.008Z,96120.50
2023-01-28T23:13:27.830Z,96125.50
2023-01-28T23:16:12.901Z,96129.22
2023-01-28T23:18:58.013Z,96106.47
2023-01-28T23:21:46.073Z,96100.13
2023-01-28T23:24:19.193Z,96100.16
2023-01-28T23:26:46.369Z,96115.59
2023-01-28T23:29:12.902Z,96113.88
2023-01-28T23:31:40.686Z,96090.81
2023-01-28T23:34:09.539Z,96062.00
2023-01-28T23:36:36.395Z,96053.94
2023-01-28T23:39:03.062Z,96053.16
2023-01-28T23:41:29.525Z,96046.09
2023-01-28T23:43:57.975Z,96040.28
2023-01-28T23:46:34.058Z,96031.19
2023-01-28T23:49:07.744Z,96034.59
2023-01-28T23:51:34.273Z,96029.13
2023-01-28T23:54:00.992Z,96018.78
2023-01-28T23:56:27.553Z,95997.25
2023-01-28T23:58:54.070Z,95981.25
